Map

Track Data

SID SEASON NUMBER BASIN SUBBASIN NAME ISO_TIME NATURE LAT LON WMO_WIND WMO_PRES WMO_AGENCY TRACK_TYPE DIST2LAND LANDFALL IFLAG USA_AGENCY USA_ATCF_ID USA_LAT USA_LON USA_RECORD USA_STATUS USA_WIND USA_PRES USA_SSHS USA_R34_NE USA_R34_SE USA_R34_SW USA_R34_NW USA_R50_NE USA_R50_SE USA_R50_SW USA_R50_NW USA_R64_NE USA_R64_SE USA_R64_SW USA_R64_NW USA_POCI USA_ROCI USA_RMW USA_EYE TOKYO_LAT TOKYO_LON TOKYO_GRADE TOKYO_WIND TOKYO_PRES TOKYO_R50_DIR TOKYO_R50_LONG TOKYO_R50_SHORT TOKYO_R30_DIR TOKYO_R30_LONG TOKYO_R30_SHORT TOKYO_LAND CMA_LAT CMA_LON CMA_CAT CMA_WIND CMA_PRES HKO_LAT HKO_LON HKO_CAT HKO_WIND HKO_PRES NEWDELHI_LAT NEWDELHI_LON NEWDELHI_GRADE NEWDELHI_WIND NEWDELHI_PRES NEWDELHI_CI NEWDELHI_DP NEWDELHI_POCI REUNION_LAT REUNION_LON REUNION_TYPE REUNION_WIND REUNION_PRES REUNION_TNUM REUNION_CI REUNION_RMW REUNION_R34_NE REUNION_R34_SE REUNION_R34_SW REUNION_R34_NW REUNION_R50_NE REUNION_R50_SE REUNION_R50_SW REUNION_R50_NW REUNION_R64_NE REUNION_R64_SE REUNION_R64_SW REUNION_R64_NW BOM_LAT BOM_LON BOM_TYPE BOM_WIND BOM_PRES BOM_TNUM BOM_CI BOM_RMW BOM_R34_NE BOM_R34_SE BOM_R34_SW BOM_R34_NW BOM_R50_NE BOM_R50_SE BOM_R50_SW BOM_R50_NW BOM_R64_NE BOM_R64_SE BOM_R64_SW BOM_R64_NW BOM_ROCI BOM_POCI BOM_EYE BOM_POS_METHOD BOM_PRES_METHOD NADI_LAT NADI_LON NADI_CAT NADI_WIND NADI_PRES WELLINGTON_LAT WELLINGTON_LON WELLINGTON_WIND WELLINGTON_PRES DS824_LAT DS824_LON DS824_STAGE DS824_WIND DS824_PRES TD9636_LAT TD9636_LON TD9636_STAGE TD9636_WIND TD9636_PRES TD9635_LAT TD9635_LON TD9635_WIND TD9635_PRES TD9635_ROCI NEUMANN_LAT NEUMANN_LON NEUMANN_CLASS NEUMANN_WIND NEUMANN_PRES MLC_LAT MLC_LON MLC_CLASS MLC_WIND MLC_PRES USA_GUST BOM_GUST BOM_GUST_PER REUNION_GUST REUNION_GUST_PER USA_SEAHGT USA_SEARAD_NE USA_SEARAD_SE USA_SEARAD_SW USA_SEARAD_NW STORM_SPEED STORM_DIR
1977039S12105 1977 15 SI WA NOT_NAMED 1977-02-08 06:00:00 TS -11.8000 104.900 spur-merge 519 519 O________OO___ jtwc_sh SH141977 -11.8000 104.900 -1 -11.8000 104.900 TC 25 -11.8000 104.900 1 9 269
1977039S12105 1977 15 SI WA NOT_NAMED 1977-02-08 09:00:00 TS -11.8096 104.451 spur-merge 535 535 P________PP___ SH141977 -11.8001 104.460 -1 -11.8001 104.460 TC 25 -11.8287 104.432 1 9 269
1977039S12105 1977 15 SI WA NOT_NAMED 1977-02-08 12:00:00 TS -11.8152 103.987 spur-merge 558 558 O________OP___ jtwc_sh SH141977 -11.8000 104.000 -1 -11.8000 104.000 TC 25 -11.8456 103.961 1 9 270
1977039S12105 1977 15 SI WA NOT_NAMED 1977-02-08 15:00:00 TS -11.8132 103.500 spur-merge 586 586 P________PP___ SH141977 -11.8000 103.507 -1 -11.8000 103.507 TC 25 -11.8397 103.484 1 10 271
1977039S12105 1977 15 SI WA NOT_NAMED 1977-02-08 18:00:00 TS -11.8000 103.000 spur-merge 609 609 O________OO___ jtwc_sh SH141977 -11.8000 103.000 -1 -11.8000 103.000 TC 25 -11.8000 103.000 1 10 272
1977039S12105 1977 15 SI WA NOT_NAMED 1977-02-08 21:00:00 TS -11.7755 102.502 spur-merge 633 633 P________PP___ SH141977 -11.7999 102.500 -1 -11.7999 102.500 TC 25 -11.7267 102.506 1 10 273
1977039S12105 1977 15 SI WA NOT_NAMED 1977-02-09 00:00:00 TS -11.7549 102.002 spur-merge 661 657 O________OP___ jtwc_sh SH141977 -11.8000 102.000 -1 -11.8000 102.000 TC 25 -11.6648 102.006 1 10 273
1977039S12105 1977 15 SI WA NOT_NAMED 1977-02-09 03:00:00 TS -11.7218 101.501 spur-merge 682 682 P________PP___ SH141977 -11.7474 101.500 -1 -11.7474 101.500 TC 25 -11.6704 101.503 1 10 267
1977039S12105 1977 15 SI WA NOT_NAMED 1977-02-09 06:00:00 TS -11.8000 101.000 spur-merge 725 725 O________OO___ jtwc_sh SH141977 -11.8000 101.000 -1 -11.8000 101.000 TC 25 -11.8000 101.000 1 10 249
1977039S12105 1977 15 SI WA NOT_NAMED 1977-02-09 09:00:00 TS -12.0917 100.508 spur-merge 786 786 P________PP___ SH141977 -12.0674 100.500 -1 -12.0674 100.500 TC 25 -12.1404 100.525 1 12 233
1977039S12105 1977 15 SI WA NOT_NAMED 1977-02-09 12:00:00 TS -12.5339 100.015 spur-merge 856 856 O________OP___ jtwc_sh SH141977 -12.5000 100.000 -1 -12.5000 100.000 TC 25 -12.6016 100.046 1 14 224
1977039S12105 1977 15 SI WA NOT_NAMED 1977-02-09 15:00:00 TS -13.0655 99.5295 spur-merge 942 942 P________PP___ SH141977 -13.0423 99.5225 -1 -13.0423 99.5225 TC 25 -13.1121 99.5435 1 15 223
1977039S12105 1977 15 SI WA NOT_NAMED 1977-02-09 18:00:00 TS -13.6000 99.0000 spur-merge 1020 1020 O________OO___ jtwc_sh SH141977 -13.6000 99.0000 -1 -13.6000 99.0000 TC 25 -13.6000 99.0000 1 15 229
1977039S12105 1977 15 SI WA NOT_NAMED 1977-02-09 21:00:00 TS -14.0361 98.3688 spur-merge 1097 1097 P________PP___ SH141977 -14.0450 98.3724 -1 -14.0450 98.3724 TC 25 -14.0183 98.3614 1 15 238
1977039S12105 1977 15 SI WA NOT_NAMED 1977-02-10 00:00:00 TS -14.3978 97.6954 spur-merge 1181 1181 O________OP___ jtwc_sh SH141977 -14.4000 97.7000 -1 -14.4000 97.7000 TC 25 -14.3933 97.6863 1 15 243
1977039S12105 1977 15 SI WA NOT_NAMED 1977-02-10 03:00:00 TS -14.7055 97.0193 spur-merge 1258 1258 P________PP___ SH141977 -14.7100 97.0201 -1 -14.7100 97.0201 TC 25 -14.6965 97.0178 1 14 248
1977039S12105 1977 15 SI WA NOT_NAMED 1977-02-10 06:00:00 TS -14.9000 96.4000 spur-merge 1321 1321 O________OO___ jtwc_sh SH141977 -14.9000 96.4000 -1 -14.9000 96.4000 TC 25 -14.9000 96.4000 1 11 257
1977039S12105 1977 15 SI WA NOT_NAMED 1977-02-10 09:00:00 TS -14.9560 95.9157 spur-merge 1368 1368 P________PP___ SH141977 -14.9447 95.9198 -1 -14.9447 95.9198 TC 25 -14.9785 95.9076 1 9 269
1977039S12105 1977 15 SI WA NOT_NAMED 1977-02-10 12:00:00 TS -14.9203 95.4895 spur-merge 1394 1394 O________OP___ jtwc_sh SH141977 -14.9000 95.5000 -1 -14.9000 95.5000 TC 25 -14.9609 95.4686 1 8 276
1977039S12105 1977 15 SI WA NOT_NAMED 1977-02-10 15:00:00 TS -14.8675 95.0635 spur-merge 1427 1427 P________PP___ SH141977 -14.8573 95.0725 -1 -14.8573 95.0725 TC 25 -14.8880 95.0454 1 9 278
1977039S12105 1977 15 SI WA NOT_NAMED 1977-02-10 18:00:00 TS -14.8000 94.6000 spur-merge 1463 1463 O________OO___ jtwc_sh SH141977 -14.8000 94.6000 -1 -14.8000 94.6000 TC 25 -14.8000 94.6000 1 10 276
1977039S12105 1977 15 SI WA NOT_NAMED 1977-02-10 21:00:00 TS -14.7526 94.0177 spur-merge 1510 1502 P________PP___ SH141977 -14.7501 94.0075 -1 -14.7501 94.0075 TC 25 -14.7577 94.0381 1 11 275
1977039S12105 1977 15 SI WA NOT_NAMED 1977-02-11 00:00:00 TS -14.7028 93.4183 spur-merge 1545 1545 O________OP___ jtwc_sh SH141977 -14.7000 93.4000 -1 -14.7000 93.4000 TC 25 -14.7083 93.4549 1 11 275
1977039S12105 1977 15 SI WA NOT_NAMED 1977-02-11 03:00:00 TS -14.6515 92.8681 spur-merge 1580 1579 P________PP___ SH141977 -14.6500 92.8550 -1 -14.6500 92.8550 TC 25 -14.6546 92.8943 1 10 276
1977039S12105 1977 15 SI WA NOT_NAMED 1977-02-11 06:00:00 TS -14.6000 92.4000 spur-merge 1608 1608 O________OO___ jtwc_sh SH141977 -14.6000 92.4000 -1 -14.6000 92.4000 TC 25 -14.6000 92.4000 1 8 277
1977039S12105 1977 15 SI WA NOT_NAMED 1977-02-11 09:00:00 TS -14.5510 92.0548 spur-merge 1626 1622 P________PP___ SH141977 -14.5498 92.0700 -1 -14.5498 92.0700 TC 25 -14.5534 92.0243 1 6 279
1977039S12105 1977 15 SI WA NOT_NAMED 1977-02-11 12:00:00 TS -14.5022 91.7726 spur-merge 1632 1632 O________OP___ jtwc_sh SH141977 -14.5000 91.8000 -1 -14.5000 91.8000 TC 25 -14.5067 91.7178 1 6 280
1977039S12105 1977 15 SI WA NOT_NAMED 1977-02-11 15:00:00 TS -14.4522 91.4891 spur-merge 1648 1638 P________PP___ SH141977 -14.4499 91.5075 -1 -14.4499 91.5075 TC 25 -14.4567 91.4524 1 6 280
1977039S12105 1977 15 SI WA NOT_NAMED 1977-02-11 18:00:00 TS -14.4000 91.2000 spur-merge 1655 1655 O________OO___ jtwc_sh SH141977 -14.4000 91.2000 -1 -14.4000 91.2000 TC 25 -14.4000 91.2000 1 6 279
1977039S12105 1977 15 SI WA NOT_NAMED 1977-02-11 21:00:00 TS -14.3492 90.8436 spur-merge 1669 1669 P________PP___ SH141977 -14.3576 90.8350 -1 -14.3576 90.8350 TC 25 -14.3323 90.8608 1 7 280
1977039S12105 1977 15 SI WA NOT_NAMED 1977-02-12 00:00:00 TS -14.2859 90.5125 spur-merge 1686 1683 O________OP___ jtwc_sh SH141977 -14.3000 90.5000 -1 -14.3000 90.5000 TC 25 -14.2577 90.5373 1 6 285
1977039S12105 1977 15 SI WA NOT_NAMED 1977-02-12 03:00:00 TS -14.1930 90.2500 spur-merge 1689 1686 P________PP___ SH141977 -14.2000 90.2400 -1 -14.2000 90.2400 TC 25 -14.1792 90.2702 1 4 295
1977039S12105 1977 15 SI WA NOT_NAMED 1977-02-12 06:00:00 TS -14.1000 90.1000 spur-merge 1693 1684 O________OO___ jtwc_sh SH141977 -14.1000 90.1000 -1 -14.1000 90.1000 TC 25 -14.1000 90.1000 1 2 315
1977039S12105 1977 15 SI WA NOT_NAMED 1977-02-12 09:00:00 TS -14.0416 90.0949 spur-merge 1684 1677 P________PP___ SH141977 -14.0500 90.1050 -1 -14.0500 90.1050 TC 25 -14.0248 90.0745 1 1 35
1977039S12105 1977 15 SI WA NOT_NAMED 1977-02-12 12:00:00 TS -13.9833 90.1817 spur-merge 1677 1662 O________OP___ jtwc_sh SH141977 -14.0000 90.2000 -1 -14.0000 90.2000 TC 25 -13.9499 90.1452 1 2 51
1977039S12105 1977 15 SI WA NOT_NAMED 1977-02-12 15:00:00 TS -13.8917 90.2894 spur-merge 1662 1646 P________PP___ SH141977 -13.9000 90.3000 -1 -13.9000 90.3000 TC 25 -13.8749 90.2682 1 3 49
1977039S12105 1977 15 SI WA NOT_NAMED 1977-02-12 18:00:00 TS -13.8000 90.4000 spur-merge 1646 1631 O________OO___ jtwc_sh SH141977 -13.8000 90.4000 -1 -13.8000 90.4000 TC 25 -13.8000 90.4000 1 2 47
1977039S12105 1977 15 SI WA NOT_NAMED 1977-02-12 21:00:00 TS -13.7403 90.4543 spur-merge 1631 1631 P________PP___ SH141977 -13.7500 90.4500 -1 -13.7500 90.4500 TC 25 -13.7209 90.4628 1 2 41
1977039S12105 1977 15 SI WA NOT_NAMED 1977-02-13 00:00:00 TS -13.6808 90.5092 spur-merge 1631 1616 O________OP___ jtwc_sh SH141977 -13.7000 90.5000 -1 -13.7000 90.5000 TC 25 -13.6424 90.5275 1 2 42
1977039S12105 1977 15 SI WA NOT_NAMED 1977-02-13 03:00:00 TS -13.5892 90.5911 spur-merge 1616 1600 P________PP___ SH141977 -13.6000 90.5850 -1 -13.6000 90.5850 TC 25 -13.5678 90.6034 1 3 46
1977039S12105 1977 15 SI WA NOT_NAMED 1977-02-13 06:00:00 TS -13.5000 90.7000 spur-merge 1600 1585 O________OO___ jtwc_sh SH141977 -13.5000 90.7000 -1 -13.5000 90.7000 TC 25 -13.5000 90.7000 1 3 58
1977039S12105 1977 15 SI WA NOT_NAMED 1977-02-13 09:00:00 TS -13.4413 90.8378 spur-merge 1585 1573 P________PP___ SH141977 -13.4425 90.8425 -1 -13.4425 90.8425 TC 25 -13.4388 90.8285 1 3 70
1977039S12105 1977 15 SI WA NOT_NAMED 1977-02-13 12:00:00 TS -13.3950 90.9925 spur-merge 1573 1557 O________OP___ jtwc_sh SH141977 -13.4000 91.0000 -1 -13.4000 91.0000 TC 25 -13.3850 90.9775 1 3 72
1977039S12105 1977 15 SI WA NOT_NAMED 1977-02-13 15:00:00 TS -13.3462 91.1459 spur-merge 1557 1545 P________PP___ SH141977 -13.3500 91.1500 -1 -13.3500 91.1500 TC 25 -13.3388 91.1378 1 3 72
1977039S12105 1977 15 SI WA NOT_NAMED 1977-02-13 18:00:00 TS -13.3000 91.3000 spur-merge 1545 1539 O________OO___ jtwc_sh SH141977 -13.3000 91.3000 -1 -13.3000 91.3000 TC 25 -13.3000 91.3000 1 3 72
1977039S12105 1977 15 SI WA NOT_NAMED 1977-02-13 21:00:00 TS -13.2496 91.4514 spur-merge 1524 1518 P________PP___ SH141977 -13.2425 91.4500 -1 -13.2425 91.4500 TC 25 -13.2637 91.4541 1 3 73
1977039S12105 1977 15 SI WA NOT_NAMED 1977-02-14 00:00:00 TS -13.2117 91.6025 spur-merge 1518 1512 O________OP___ jtwc_sh SH141977 -13.2000 91.6000 -1 -13.2000 91.6000 TC 25 -13.2350 91.6075 1 3 80
1977039S12105 1977 15 SI WA NOT_NAMED 1977-02-14 03:00:00 TS -13.1996 91.7524 spur-merge 1507 1501 P________PP___ SH141977 -13.1925 91.7500 -1 -13.1925 91.7500 TC 25 -13.2137 91.7572 1 3 88
1977039S12105 1977 15 SI WA NOT_NAMED 1977-02-14 06:00:00 TS -13.2000 91.9000 spur-merge 1501 1495 O________OO___ jtwc_sh SH141977 -13.2000 91.9000 -1 -13.2000 91.9000 TC 25 -13.2000 91.9000 1 3 90
1977039S12105 1977 15 SI WA NOT_NAMED 1977-02-14 09:00:00 TS -13.1976 92.0477 spur-merge 1495 1484 P________PP___ SH141977 -13.2000 92.0575 -1 -13.2000 92.0575 TC 25 -13.1928 92.0281 1 3 89
1977039S12105 1977 15 SI WA NOT_NAMED 1977-02-14 12:00:00 TS -13.1975 92.1833 spur-merge 1484 1479 O________OP___ jtwc_sh SH141977 -13.2000 92.2000 -1 -13.2000 92.2000 TC 25 -13.1924 92.1500 1 2 90
1977039S12105 1977 15 SI WA NOT_NAMED 1977-02-14 15:00:00 TS -13.1986 92.2906 spur-merge 1479 1473 P________PP___ SH141977 -13.2000 92.3000 -1 -13.2000 92.3000 TC 25 -13.1959 92.2719 1 2 91
1977039S12105 1977 15 SI WA NOT_NAMED 1977-02-14 18:00:00 TS -13.2000 92.4000 spur-merge 1473 1468 O________OO___ jtwc_sh SH141977 -13.2000 92.4000 -1 -13.2000 92.4000 TC 25 -13.2000 92.4000 1 3 92
1977039S12105 1977 15 SI WA NOT_NAMED 1977-02-14 21:00:00 TS -13.2081 92.5521 spur-merge 1463 1458 P________PP___ SH141977 -13.2000 92.5425 -1 -13.2000 92.5425 TC 25 -13.2244 92.5712 1 3 93
1977039S12105 1977 15 SI WA NOT_NAMED 1977-02-15 00:00:00 TS -13.2150 92.7150 spur-merge 1458 1447 O________OP___ jtwc_sh SH141977 -13.2000 92.7000 -1 -13.2000 92.7000 TC 25 -13.2451 92.7450 1 3 94
1977039S12105 1977 15 SI WA NOT_NAMED 1977-02-15 03:00:00 TS -13.2294 92.8804 spur-merge 1447 1442 P________PP___ SH141977 -13.2225 92.8725 -1 -13.2225 92.8725 TC 25 -13.2432 92.8963 1 3 87
1977039S12105 1977 15 SI WA NOT_NAMED 1977-02-15 06:00:00 TS -13.2000 93.0000 spur-merge 1442 1433 O________OO___ jtwc_sh SH141977 -13.2000 93.0000 -1 -13.2000 93.0000 TC 25 -13.2000 93.0000 1 2 43
1977039S12105 1977 15 SI WA NOT_NAMED 1977-02-15 09:00:00 TS -13.0739 93.0298 spur-merge 1433 1413 P________PP___ SH141977 -13.0725 93.0300 -1 -13.0725 93.0300 TC 25 -13.1025 93.0384 1 3 5
1977039S12105 1977 15 SI WA NOT_NAMED 1977-02-15 12:00:00 TS -12.9050 93.0033 spur-merge 1413 1393 O________OP___ jtwc_sh SH141977 -12.9000 93.0000 -1 -12.9000 93.0000 TC 25 -12.9600 93.0224 1 3 347
1977039S12105 1977 15 SI WA NOT_NAMED 1977-02-15 15:00:00 TS -12.7385 92.9535 spur-merge 1393 1388 P________PP___ SH141977 -12.7350 92.9500 -1 -12.7350 92.9500 TC 25 -12.7875 92.9702 1 3 343
1977039S12105 1977 15 SI WA NOT_NAMED 1977-02-15 18:00:00 TS -12.6000 92.9000 spur-merge 1388 1379 O________OO___ jtwc_sh SH141977 -12.6000 92.9000 -1 -12.6000 92.9000 TC 25 -12.6000 92.9000 1 2 348
1977039S12105 1977 15 SI WA NOT_NAMED 1977-02-15 21:00:00 TS -12.5338 92.9089 spur-merge 1379 1379 P________P____ SH141977 -12.5350 92.9075 -1 -12.5350 92.9075 TC 25 1 1 14
1977039S12105 1977 15 SI WA NOT_NAMED 1977-02-16 00:00:00 TS -12.4983 92.9014 spur-merge 1379 1379 O________O____ jtwc_sh SH141977 -12.5000 92.9000 -1 -12.5000 92.9000 TC 25 1 1 322
1977039S12105 1977 15 SI WA NOT_NAMED 1977-02-16 03:00:00 TS -12.4574 92.8525 spur-merge 1379 1374 P________P____ SH141977 -12.4574 92.8525 -1 -12.4574 92.8525 TC 25 1 2 296
1977039S12105 1977 15 SI WA NOT_NAMED 1977-02-16 06:00:00 TS -12.4000 92.7000 spur-merge 1380 1380 O________O____ jtwc_sh SH141977 -12.4000 92.7000 -1 -12.4000 92.7000 TC 25 5 289
1977039S12105 1977 15 SI WA NOT_NAMED 1977-02-16 09:00:00 TS -12.3075 92.4025 spur-merge 1387 1387 P________P____ SH141977 -12.3075 92.4025 -1 -12.3075 92.4025 TC 25 7 286
1977039S12105 1977 15 SI WA NOT_NAMED 1977-02-16 12:00:00 TS -12.2000 92.0000 spur-merge 1401 1401 O________O____ jtwc_sh SH141977 -12.2000 92.0000 -1 -12.2000 92.0000 TC 25 9 286
1977039S12105 1977 15 SI WA NOT_NAMED 1977-02-16 15:00:00 TS -12.0775 91.5574 spur-merge 1416 1416 P________P____ SH141977 -12.0775 91.5574 -1 -12.0775 91.5574 TC 25 9 283
1977039S12105 1977 15 SI WA NOT_NAMED 1977-02-16 18:00:00 TS -12.0000 91.1000 spur-merge 1439 1439 O________O____ jtwc_sh SH141977 -12.0000 91.1000 -1 -12.0000 91.1000 TC 25 9 274
1977039S12105 1977 15 SI WA NOT_NAMED 1977-02-16 21:00:00 TS -12.0199 90.6851 spur-merge 1466 1466 P________P____ SH141977 -12.0199 90.6851 -1 -12.0199 90.6851 TC 25 8 263
1977039S12105 1977 15 SI WA NOT_NAMED 1977-02-17 00:00:00 TS -12.1000 90.3000 spur-merge 1502 1502 O________O____ jtwc_sh SH141977 -12.1000 90.3000 -1 -12.1000 90.3000 TC 25 7 257
1977039S12105 1977 15 SI MM NOT_NAMED 1977-02-17 03:00:00 TS -12.1849 89.9425 spur-merge 1539 1539 P________P____ SH141977 -12.1849 89.9425 -1 -12.1849 89.9425 TC 25 7 254
1977039S12105 1977 15 SI MM NOT_NAMED 1977-02-17 06:00:00 TS -12.3000 89.6000 spur-merge 1569 1569 O________O____ jtwc_sh SH141977 -12.3000 89.6000 -1 -12.3000 89.6000 TC 25 7 249
1977039S12105 1977 15 SI MM NOT_NAMED 1977-02-17 09:00:00 TS -12.4500 89.2500 spur-merge 1599 1599 P________P____ SH141977 -12.4500 89.2500 -1 -12.4500 89.2500 TC 25 7 246
1977039S12105 1977 15 SI MM NOT_NAMED 1977-02-17 09:50:00 TS -12.4938 89.1528 spur-merge 1614 1622 P________P____ SH141977 -12.4938 89.1528 -1 -12.4938 89.1528 TC 25 7 246
1977039S12105 1977 15 SI MM NOT_NAMED 1977-02-17 12:00:00 TS -12.6000 88.9000 spur-merge 1645 1645 O________O____ jtwc_sh SH141977 -12.6000 88.9000 -1 -12.6000 88.9000 TC 25 7 250
1977039S12105 1977 15 SI MM NOT_NAMED 1977-02-17 15:00:00 TS -12.7075 88.5499 spur-merge 1683 1683 P________P____ SH141977 -12.7075 88.5499 -1 -12.7075 88.5499 TC 25 7 254
1977039S12105 1977 15 SI MM NOT_NAMED 1977-02-17 18:00:00 TS -12.8000 88.2000 spur-merge 1713 1713 O________O____ jtwc_sh SH141977 -12.8000 88.2000 -1 -12.8000 88.2000 TC 25 7 254
1977039S12105 1977 15 SI MM NOT_NAMED 1977-02-17 21:00:00 TS -12.9075 87.8500 spur-merge 1744 1752 P________P____ SH141977 -12.8976 87.8501 -1 -12.8976 87.8501 TC 25 7 254
1977039S12105 1977 15 SI MM NOT_NAMED 1977-02-18 00:00:00 TS -13.0000 87.5000 spur-merge 1783 1783 O________O____ jtwc_sh SH141977 -13.0000 87.5000 -1 -13.0000 87.5000 TC 25 7 257
1977039S12105 1977 15 SI MM NOT_NAMED 1977-02-18 03:00:00 NR -13.0649 87.1575 spur-merge 1814 ______________ SH141977 -1 TC 7 259

About IBTrACS Database

This database is a web-friendly format of International Best Track Archive for Climate Stewardship (IBTrACS), a global best track data archive curated by NOAA dating back to 1842.

Updated: 2021-10-08